sensor_id;sensor_type;location;lat;lon;timestamp;temperature;humidity
2465;DHT22;1244;54.326;10.074;2023-07-16T00:01:40;18.20;99.90
2465;DHT22;1244;54.326;10.074;2023-07-16T00:04:06;18.20;99.90
2465;DHT22;1244;54.326;10.074;2023-07-16T00:06:31;18.20;99.90
2465;DHT22;1244;54.326;10.074;2023-07-16T00:08:57;18.20;99.90
2465;DHT22;1244;54.326;10.074;2023-07-16T00:11:22;18.10;99.90
2465;DHT22;1244;54.326;10.074;2023-07-16T00:13:48;18.10;99.90
2465;DHT22;1244;54.326;10.074;2023-07-16T00:16:14;18.10;99.90
2465;DHT22;1244;54.326;10.074;2023-07-16T00:18:43;18.10;99.90
2465;DHT22;1244;54.326;10.074;2023-07-16T00:21:09;18.10;99.90
2465;DHT22;1244;54.326;10.074;2023-07-16T00:23:35;18.00;99.90
2465;DHT22;1244;54.326;10.074;2023-07-16T00:26:01;18.00;99.90
2465;DHT22;1244;54.326;10.074;2023-07-16T00:28:26;18.00;99.90
2465;DHT22;1244;54.326;10.074;2023-07-16T00:30:52;18.00;99.90
2465;DHT22;1244;54.326;10.074;2023-07-16T00:33:17;17.80;99.90
2465;DHT22;1244;54.326;10.074;2023-07-16T00:35:49;17.90;99.90
2465;DHT22;1244;54.326;10.074;2023-07-16T00:38:18;17.90;99.90
2465;DHT22;1244;54.326;10.074;2023-07-16T00:40:43;17.90;99.90
2465;DHT22;1244;54.326;10.074;2023-07-16T00:43:09;17.80;99.90
2465;DHT22;1244;54.326;10.074;2023-07-16T00:45:36;17.80;99.90
2465;DHT22;1244;54.326;10.074;2023-07-16T00:48:02;17.80;99.90
2465;DHT22;1244;54.326;10.074;2023-07-16T00:50:27;17.80;99.90
2465;DHT22;1244;54.326;10.074;2023-07-16T00:52:54;17.70;99.90
2465;DHT22;1244;54.326;10.074;2023-07-16T00:55:20;17.80;99.90
2465;DHT22;1244;54.326;10.074;2023-07-16T00:57:46;17.90;99.90
2465;DHT22;1244;54.326;10.074;2023-07-16T01:00:12;17.90;99.90
2465;DHT22;1244;54.326;10.074;2023-07-16T01:02:38;17.90;99.90
2465;DHT22;1244;54.326;10.074;2023-07-16T01:05:04;17.90;99.90
2465;DHT22;1244;54.326;10.074;2023-07-16T01:07:30;17.90;99.90
2465;DHT22;1244;54.326;10.074;2023-07-16T01:09:57;17.90;99.90
2465;DHT22;1244;54.326;10.074;2023-07-16T01:12:23;17.80;99.90
2465;DHT22;1244;54.326;10.074;2023-07-16T01:14:51;17.80;99.90
2465;DHT22;1244;54.326;10.074;2023-07-16T01:17:17;17.80;99.90
2465;DHT22;1244;54.326;10.074;2023-07-16T01:19:43;17.80;99.90
2465;DHT22;1244;54.326;10.074;2023-07-16T01:22:27;17.70;99.90
2465;DHT22;1244;54.326;10.074;2023-07-16T01:27:50;17.70;99.90
2465;DHT22;1244;54.326;10.074;2023-07-16T01:30:19;17.80;99.90
2465;DHT22;1244;54.326;10.074;2023-07-16T01:32:46;17.70;99.90
2465;DHT22;1244;54.326;10.074;2023-07-16T01:35:12;17.80;99.90
2465;DHT22;1244;54.326;10.074;2023-07-16T01:37:39;17.60;99.90
2465;DHT22;1244;54.326;10.074;2023-07-16T01:40:07;17.60;99.90
2465;DHT22;1244;54.326;10.074;2023-07-16T01:42:34;17.60;99.90
2465;DHT22;1244;54.326;10.074;2023-07-16T01:45:00;17.60;99.90
2465;DHT22;1244;54.326;10.074;2023-07-16T01:47:46;17.60;99.90
2465;DHT22;1244;54.326;10.074;2023-07-16T01:50:15;17.60;99.90
2465;DHT22;1244;54.326;10.074;2023-07-16T01:52:40;17.60;99.90
2465;DHT22;1244;54.326;10.074;2023-07-16T01:55:06;17.60;99.90
2465;DHT22;1244;54.326;10.074;2023-07-16T01:57:31;17.60;99.90
2465;DHT22;1244;54.326;10.074;2023-07-16T01:59:57;17.60;99.90
2465;DHT22;1244;54.326;10.074;2023-07-16T02:02:22;17.60;99.90
2465;DHT22;1244;54.326;10.074;2023-07-16T02:04:48;17.60;99.90
2465;DHT22;1244;54.326;10.074;2023-07-16T02:07:13;17.60;99.90
2465;DHT22;1244;54.326;10.074;2023-07-16T02:09:39;17.50;99.90
2465;DHT22;1244;54.326;10.074;2023-07-16T02:12:06;17.50;99.90
2465;DHT22;1244;54.326;10.074;2023-07-16T02:14:31;17.60;99.90
2465;DHT22;1244;54.326;10.074;2023-07-16T02:16:57;17.40;99.90
2465;DHT22;1244;54.326;10.074;2023-07-16T02:19:22;17.50;99.90
2465;DHT22;1244;54.326;10.074;2023-07-16T02:21:48;17.50;99.90
2465;DHT22;1244;54.326;10.074;2023-07-16T02:24:14;17.50;99.90
2465;DHT22;1244;54.326;10.074;2023-07-16T02:26:39;17.40;99.90
2465;DHT22;1244;54.326;10.074;2023-07-16T02:29:05;17.40;99.90
2465;DHT22;1244;54.326;10.074;2023-07-16T02:31:34;17.40;99.90
2465;DHT22;1244;54.326;10.074;2023-07-16T02:34:00;17.40;99.90
2465;DHT22;1244;54.326;10.074;2023-07-16T02:36:25;17.40;99.90
2465;DHT22;1244;54.326;10.074;2023-07-16T02:38:51;17.40;99.90
2465;DHT22;1244;54.326;10.074;2023-07-16T02:41:16;17.40;99.90
2465;DHT22;1244;54.326;10.074;2023-07-16T02:43:42;17.40;99.90
2465;DHT22;1244;54.326;10.074;2023-07-16T02:46:07;17.40;99.90
2465;DHT22;1244;54.326;10.074;2023-07-16T02:48:33;17.40;99.90
2465;DHT22;1244;54.326;10.074;2023-07-16T02:50:58;17.20;99.90
2465;DHT22;1244;54.326;10.074;2023-07-16T02:53:24;17.30;99.90
2465;DHT22;1244;54.326;10.074;2023-07-16T02:55:49;17.20;99.90
2465;DHT22;1244;54.326;10.074;2023-07-16T02:58:15;17.30;99.90
2465;DHT22;1244;54.326;10.074;2023-07-16T03:00:40;17.30;99.90
2465;DHT22;1244;54.326;10.074;2023-07-16T03:03:06;17.30;99.90
2465;DHT22;1244;54.326;10.074;2023-07-16T03:05:31;17.30;99.90
2465;DHT22;1244;54.326;10.074;2023-07-16T03:07:57;17.20;99.90
2465;DHT22;1244;54.326;10.074;2023-07-16T03:10:22;17.20;99.90
2465;DHT22;1244;54.326;10.074;2023-07-16T03:12:48;17.10;99.90
2465;DHT22;1244;54.326;10.074;2023-07-16T03:15:14;17.20;99.90
2465;DHT22;1244;54.326;10.074;2023-07-16T03:17:39;17.10;99.90
2465;DHT22;1244;54.326;10.074;2023-07-16T03:20:05;17.10;99.90
2465;DHT22;1244;54.326;10.074;2023-07-16T03:22:31;17.10;99.90
2465;DHT22;1244;54.326;10.074;2023-07-16T03:24:57;17.00;99.90
2465;DHT22;1244;54.326;10.074;2023-07-16T03:27:23;17.10;99.90
2465;DHT22;1244;54.326;10.074;2023-07-16T03:29:48;17.10;99.90
2465;DHT22;1244;54.326;10.074;2023-07-16T03:32:14;17.00;99.90
2465;DHT22;1244;54.326;10.074;2023-07-16T03:34:39;17.00;99.90
2465;DHT22;1244;54.326;10.074;2023-07-16T03:37:05;17.00;99.90
2465;DHT22;1244;54.326;10.074;2023-07-16T03:39:30;16.90;99.90
2465;DHT22;1244;54.326;10.074;2023-07-16T03:41:56;16.90;99.90
2465;DHT22;1244;54.326;10.074;2023-07-16T03:44:21;16.90;99.90
2465;DHT22;1244;54.326;10.074;2023-07-16T03:46:47;16.90;99.90
2465;DHT22;1244;54.326;10.074;2023-07-16T03:49:12;16.80;99.90
2465;DHT22;1244;54.326;10.074;2023-07-16T03:51:38;16.80;99.90
2465;DHT22;1244;54.326;10.074;2023-07-16T03:54:03;16.80;99.90
2465;DHT22;1244;54.326;10.074;2023-07-16T03:56:28;16.90;99.90
2465;DHT22;1244;54.326;10.074;2023-07-16T03:58:54;16.90;99.90
2465;DHT22;1244;54.326;10.074;2023-07-16T04:01:19;16.90;99.90
2465;DHT22;1244;54.326;10.074;2023-07-16T04:03:45;16.80;99.90
2465;DHT22;1244;54.326;10.074;2023-07-16T04:06:13;16.90;99.90
2465;DHT22;1244;54.326;10.074;2023-07-16T04:08:39;16.80;99.90
2465;DHT22;1244;54.326;10.074;2023-07-16T04:11:05;16.90;99.90
2465;DHT22;1244;54.326;10.074;2023-07-16T04:13:31;16.80;99.90
2465;DHT22;1244;54.326;10.074;2023-07-16T04:15:56;16.80;99.90
2465;DHT22;1244;54.326;10.074;2023-07-16T04:18:23;16.70;99.90
2465;DHT22;1244;54.326;10.074;2023-07-16T04:20:49;16.80;99.90
2465;DHT22;1244;54.326;10.074;2023-07-16T04:23:14;16.80;99.90
2465;DHT22;1244;54.326;10.074;2023-07-16T04:25:40;16.80;99.90
2465;DHT22;1244;54.326;10.074;2023-07-16T04:28:05;16.80;99.90
2465;DHT22;1244;54.326;10.074;2023-07-16T04:30:31;16.80;99.90
2465;DHT22;1244;54.326;10.074;2023-07-16T04:32:57;16.80;99.90
2465;DHT22;1244;54.326;10.074;2023-07-16T04:35:22;16.70;99.90
2465;DHT22;1244;54.326;10.074;2023-07-16T04:37:48;16.60;99.90
2465;DHT22;1244;54.326;10.074;2023-07-16T04:40:13;16.70;99.90
2465;DHT22;1244;54.326;10.074;2023-07-16T04:42:39;16.80;99.90
2465;DHT22;1244;54.326;10.074;2023-07-16T04:45:04;16.70;99.90
2465;DHT22;1244;54.326;10.074;2023-07-16T04:47:31;16.90;99.90
2465;DHT22;1244;54.326;10.074;2023-07-16T04:49:58;17.00;99.90
2465;DHT22;1244;54.326;10.074;2023-07-16T04:52:24;17.00;99.90
2465;DHT22;1244;54.326;10.074;2023-07-16T04:54:49;17.10;99.90
2465;DHT22;1244;54.326;10.074;2023-07-16T04:57:15;17.10;99.90
2465;DHT22;1244;54.326;10.074;2023-07-16T04:59:40;17.20;99.90
2465;DHT22;1244;54.326;10.074;2023-07-16T05:02:06;17.20;99.90
2465;DHT22;1244;54.326;10.074;2023-07-16T05:04:33;17.20;99.90
2465;DHT22;1244;54.326;10.074;2023-07-16T05:06:58;17.20;99.90
2465;DHT22;1244;54.326;10.074;2023-07-16T05:09:24;17.30;99.90
2465;DHT22;1244;54.326;10.074;2023-07-16T05:11:49;17.40;99.90
2465;DHT22;1244;54.326;10.074;2023-07-16T05:14:15;17.50;99.90
2465;DHT22;1244;54.326;10.074;2023-07-16T05:16:40;17.50;99.90
2465;DHT22;1244;54.326;10.074;2023-07-16T05:19:06;17.50;99.90
2465;DHT22;1244;54.326;10.074;2023-07-16T05:21:31;17.40;99.90
2465;DHT22;1244;54.326;10.074;2023-07-16T05:23:57;17.40;99.90
2465;DHT22;1244;54.326;10.074;2023-07-16T05:26:22;17.40;99.90
2465;DHT22;1244;54.326;10.074;2023-07-16T05:28:49;17.40;99.90
2465;DHT22;1244;54.326;10.074;2023-07-16T05:31:14;17.40;99.90
2465;DHT22;1244;54.326;10.074;2023-07-16T05:33:40;17.50;99.90
2465;DHT22;1244;54.326;10.074;2023-07-16T05:36:06;17.50;99.90
2465;DHT22;1244;54.326;10.074;2023-07-16T05:38:31;17.60;99.90
2465;DHT22;1244;54.326;10.074;2023-07-16T05:41:02;17.60;99.90
2465;DHT22;1244;54.326;10.074;2023-07-16T05:43:28;17.70;99.90
2465;DHT22;1244;54.326;10.074;2023-07-16T05:45:55;17.80;99.90
2465;DHT22;1244;54.326;10.074;2023-07-16T05:48:20;17.80;99.90
2465;DHT22;1244;54.326;10.074;2023-07-16T05:50:46;17.90;99.90
2465;DHT22;1244;54.326;10.074;2023-07-16T05:53:11;18.00;99.90
2465;DHT22;1244;54.326;10.074;2023-07-16T05:55:39;18.10;99.90
2465;DHT22;1244;54.326;10.074;2023-07-16T05:58:05;18.10;99.90
2465;DHT22;1244;54.326;10.074;2023-07-16T06:00:30;18.10;99.90
2465;DHT22;1244;54.326;10.074;2023-07-16T06:02:56;18.20;99.90
2465;DHT22;1244;54.326;10.074;2023-07-16T06:05:22;18.20;99.90
2465;DHT22;1244;54.326;10.074;2023-07-16T06:07:47;18.20;99.90
2465;DHT22;1244;54.326;10.074;2023-07-16T06:10:13;18.30;99.90
2465;DHT22;1244;54.326;10.074;2023-07-16T06:12:38;18.30;99.90
2465;DHT22;1244;54.326;10.074;2023-07-16T06:15:04;18.40;99.90
2465;DHT22;1244;54.326;10.074;2023-07-16T06:17:30;18.40;99.90
2465;DHT22;1244;54.326;10.074;2023-07-16T06:19:55;18.40;99.90
2465;DHT22;1244;54.326;10.074;2023-07-16T06:22:22;18.60;99.90
2465;DHT22;1244;54.326;10.074;2023-07-16T06:24:48;18.50;99.90
2465;DHT22;1244;54.326;10.074;2023-07-16T06:27:14;18.60;99.90
2465;DHT22;1244;54.326;10.074;2023-07-16T06:29:39;18.80;99.90
2465;DHT22;1244;54.326;10.074;2023-07-16T06:32:06;18.80;99.90
2465;DHT22;1244;54.326;10.074;2023-07-16T06:34:31;18.90;99.90
2465;DHT22;1244;54.326;10.074;2023-07-16T06:36:57;19.00;99.90
2465;DHT22;1244;54.326;10.074;2023-07-16T06:39:22;19.20;99.90
2465;DHT22;1244;54.326;10.074;2023-07-16T06:41:48;19.10;99.90
2465;DHT22;1244;54.326;10.074;2023-07-16T06:44:13;19.20;99.90
2465;DHT22;1244;54.326;10.074;2023-07-16T06:46:39;19.20;99.90
2465;DHT22;1244;54.326;10.074;2023-07-16T06:49:06;19.20;99.90
2465;DHT22;1244;54.326;10.074;2023-07-16T06:51:32;19.40;99.90
2465;DHT22;1244;54.326;10.074;2023-07-16T06:53:59;19.30;99.90
2465;DHT22;1244;54.326;10.074;2023-07-16T06:56:25;19.50;99.90
2465;DHT22;1244;54.326;10.074;2023-07-16T06:58:50;19.50;99.90
2465;DHT22;1244;54.326;10.074;2023-07-16T07:01:16;19.60;99.90
2465;DHT22;1244;54.326;10.074;2023-07-16T07:03:41;19.60;99.90
2465;DHT22;1244;54.326;10.074;2023-07-16T07:06:07;19.80;99.90
2465;DHT22;1244;54.326;10.074;2023-07-16T07:08:32;19.90;99.90
2465;DHT22;1244;54.326;10.074;2023-07-16T07:10:58;20.00;99.90
2465;DHT22;1244;54.326;10.074;2023-07-16T07:13:24;20.10;99.90
2465;DHT22;1244;54.326;10.074;2023-07-16T07:15:49;20.10;99.90
2465;DHT22;1244;54.326;10.074;2023-07-16T07:18:15;20.00;99.90
2465;DHT22;1244;54.326;10.074;2023-07-16T07:20:40;19.90;99.90
2465;DHT22;1244;54.326;10.074;2023-07-16T07:23:06;20.10;99.90
2465;DHT22;1244;54.326;10.074;2023-07-16T07:25:32;20.10;99.90
2465;DHT22;1244;54.326;10.074;2023-07-16T07:27:59;20.00;99.90
2465;DHT22;1244;54.326;10.074;2023-07-16T07:30:25;20.20;99.90
2465;DHT22;1244;54.326;10.074;2023-07-16T07:32:51;20.40;99.90
2465;DHT22;1244;54.326;10.074;2023-07-16T07:35:16;20.60;99.90
2465;DHT22;1244;54.326;10.074;2023-07-16T07:37:42;20.50;99.90
2465;DHT22;1244;54.326;10.074;2023-07-16T07:40:08;20.40;99.90
2465;DHT22;1244;54.326;10.074;2023-07-16T07:42:33;20.40;99.90
2465;DHT22;1244;54.326;10.074;2023-07-16T07:44:59;20.60;99.90
2465;DHT22;1244;54.326;10.074;2023-07-16T07:47:24;20.40;99.90
2465;DHT22;1244;54.326;10.074;2023-07-16T07:49:52;20.50;99.90
2465;DHT22;1244;54.326;10.074;2023-07-16T07:52:18;20.60;99.90
2465;DHT22;1244;54.326;10.074;2023-07-16T07:54:43;20.40;99.90
2465;DHT22;1244;54.326;10.074;2023-07-16T07:57:09;20.60;99.90
2465;DHT22;1244;54.326;10.074;2023-07-16T07:59:34;20.80;99.90
2465;DHT22;1244;54.326;10.074;2023-07-16T08:02:00;20.60;99.90
2465;DHT22;1244;54.326;10.074;2023-07-16T08:04:29;20.70;99.90
2465;DHT22;1244;54.326;10.074;2023-07-16T08:06:56;21.00;99.90
2465;DHT22;1244;54.326;10.074;2023-07-16T08:09:22;20.60;99.90
2465;DHT22;1244;54.326;10.074;2023-07-16T08:11:47;20.60;99.90
2465;DHT22;1244;54.326;10.074;2023-07-16T08:14:13;20.70;99.90
2465;DHT22;1244;54.326;10.074;2023-07-16T08:16:38;21.00;99.90
2465;DHT22;1244;54.326;10.074;2023-07-16T08:19:04;20.90;99.90
2465;DHT22;1244;54.326;10.074;2023-07-16T08:21:29;21.00;99.90
2465;DHT22;1244;54.326;10.074;2023-07-16T08:23:55;21.30;99.90
2465;DHT22;1244;54.326;10.074;2023-07-16T08:26:20;21.70;99.90
2465;DHT22;1244;54.326;10.074;2023-07-16T08:28:46;21.40;99.90
2465;DHT22;1244;54.326;10.074;2023-07-16T08:31:12;21.80;99.90
2465;DHT22;1244;54.326;10.074;2023-07-16T08:33:38;22.10;99.90
2465;DHT22;1244;54.326;10.074;2023-07-16T08:36:04;21.80;99.90
2465;DHT22;1244;54.326;10.074;2023-07-16T08:38:30;21.80;99.90
2465;DHT22;1244;54.326;10.074;2023-07-16T08:40:55;22.00;99.90
2465;DHT22;1244;54.326;10.074;2023-07-16T08:43:21;22.00;99.90
2465;DHT22;1244;54.326;10.074;2023-07-16T08:45:49;21.90;99.90
2465;DHT22;1244;54.326;10.074;2023-07-16T08:48:16;22.00;99.90
2465;DHT22;1244;54.326;10.074;2023-07-16T08:50:49;21.60;99.90
2465;DHT22;1244;54.326;10.074;2023-07-16T08:53:18;21.50;99.90
2465;DHT22;1244;54.326;10.074;2023-07-16T08:55:44;21.70;99.90
2465;DHT22;1244;54.326;10.074;2023-07-16T08:58:11;21.70;99.90
2465;DHT22;1244;54.326;10.074;2023-07-16T09:00:38;21.40;99.90
2465;DHT22;1244;54.326;10.074;2023-07-16T09:03:03;21.30;99.90
2465;DHT22;1244;54.326;10.074;2023-07-16T09:05:29;20.90;99.90
2465;DHT22;1244;54.326;10.074;2023-07-16T09:07:55;20.90;99.90
2465;DHT22;1244;54.326;10.074;2023-07-16T09:10:20;21.10;99.90
2465;DHT22;1244;54.326;10.074;2023-07-16T09:12:46;21.60;99.90
2465;DHT22;1244;54.326;10.074;2023-07-16T09:15:17;21.80;99.90
2465;DHT22;1244;54.326;10.074;2023-07-16T09:17:47;21.60;99.90
2465;DHT22;1244;54.326;10.074;2023-07-16T09:20:17;21.50;99.90
2465;DHT22;1244;54.326;10.074;2023-07-16T09:22:43;21.40;99.90
2465;DHT22;1244;54.326;10.074;2023-07-16T09:25:09;21.90;99.90
2465;DHT22;1244;54.326;10.074;2023-07-16T09:27:35;21.70;99.90
2465;DHT22;1244;54.326;10.074;2023-07-16T09:30:03;21.60;99.90
2465;DHT22;1244;54.326;10.074;2023-07-16T09:32:38;21.80;99.90
2465;DHT22;1244;54.326;10.074;2023-07-16T09:35:10;22.10;99.90
2465;DHT22;1244;54.326;10.074;2023-07-16T09:37:37;22.60;99.90
2465;DHT22;1244;54.326;10.074;2023-07-16T09:40:05;22.40;99.90
2465;DHT22;1244;54.326;10.074;2023-07-16T09:42:39;21.70;99.90
2465;DHT22;1244;54.326;10.074;2023-07-16T09:45:18;21.30;99.90
2465;DHT22;1244;54.326;10.074;2023-07-16T09:47:45;21.40;99.90
2465;DHT22;1244;54.326;10.074;2023-07-16T09:50:11;22.30;99.90
2465;DHT22;1244;54.326;10.074;2023-07-16T09:52:37;22.50;99.90
2465;DHT22;1244;54.326;10.074;2023-07-16T09:55:04;22.10;99.90
2465;DHT22;1244;54.326;10.074;2023-07-16T09:57:35;21.60;99.90
2465;DHT22;1244;54.326;10.074;2023-07-16T10:00:06;22.40;99.90
2465;DHT22;1244;54.326;10.074;2023-07-16T10:02:34;23.30;99.90
2465;DHT22;1244;54.326;10.074;2023-07-16T10:05:14;23.90;99.90
2465;DHT22;1244;54.326;10.074;2023-07-16T10:07:40;23.60;99.90
2465;DHT22;1244;54.326;10.074;2023-07-16T10:10:10;23.20;99.90
2465;DHT22;1244;54.326;10.074;2023-07-16T10:12:37;22.80;99.90
2465;DHT22;1244;54.326;10.074;2023-07-16T10:15:04;22.30;99.90
2465;DHT22;1244;54.326;10.074;2023-07-16T10:17:33;23.30;99.90
2465;DHT22;1244;54.326;10.074;2023-07-16T10:20:08;23.90;99.90
2465;DHT22;1244;54.326;10.074;2023-07-16T10:22:47;23.60;99.90
2465;DHT22;1244;54.326;10.074;2023-07-16T10:27:46;23.20;99.90
2465;DHT22;1244;54.326;10.074;2023-07-16T10:30:12;23.70;99.90
2465;DHT22;1244;54.326;10.074;2023-07-16T10:32:38;24.10;99.90
2465;DHT22;1244;54.326;10.074;2023-07-16T10:35:05;23.50;99.90
2465;DHT22;1244;54.326;10.074;2023-07-16T10:37:32;23.80;99.90
2465;DHT22;1244;54.326;10.074;2023-07-16T10:39:59;24.80;99.90
2465;DHT22;1244;54.326;10.074;2023-07-16T10:42:26;24.80;99.90
2465;DHT22;1244;54.326;10.074;2023-07-16T10:45:03;25.60;99.90
2465;DHT22;1244;54.326;10.074;2023-07-16T10:47:33;26.10;99.90
2465;DHT22;1244;54.326;10.074;2023-07-16T10:49:59;24.70;99.90
2465;DHT22;1244;54.326;10.074;2023-07-16T10:52:26;24.90;99.90
2465;DHT22;1244;54.326;10.074;2023-07-16T10:54:51;25.30;99.90
2465;DHT22;1244;54.326;10.074;2023-07-16T10:57:23;25.00;99.90
2465;DHT22;1244;54.326;10.074;2023-07-16T10:59:50;23.90;99.90
2465;DHT22;1244;54.326;10.074;2023-07-16T11:02:16;23.20;99.90
2465;DHT22;1244;54.326;10.074;2023-07-16T11:04:43;22.40;99.90
2465;DHT22;1244;54.326;10.074;2023-07-16T11:07:11;22.30;99.90
2465;DHT22;1244;54.326;10.074;2023-07-16T11:09:41;22.10;99.90
2465;DHT22;1244;54.326;10.074;2023-07-16T11:12:12;22.20;99.90
2465;DHT22;1244;54.326;10.074;2023-07-16T11:14:39;23.80;99.90
2465;DHT22;1244;54.326;10.074;2023-07-16T11:17:07;24.20;99.90
2465;DHT22;1244;54.326;10.074;2023-07-16T11:19:34;23.90;99.90
2465;DHT22;1244;54.326;10.074;2023-07-16T11:22:02;23.00;99.90
2465;DHT22;1244;54.326;10.074;2023-07-16T11:24:28;22.50;99.90
2465;DHT22;1244;54.326;10.074;2023-07-16T11:26:54;22.10;99.90
2465;DHT22;1244;54.326;10.074;2023-07-16T11:29:22;22.00;99.90
2465;DHT22;1244;54.326;10.074;2023-07-16T11:31:52;21.90;99.90
2465;DHT22;1244;54.326;10.074;2023-07-16T11:34:22;22.20;99.90
2465;DHT22;1244;54.326;10.074;2023-07-16T11:36:49;23.30;99.90
2465;DHT22;1244;54.326;10.074;2023-07-16T11:39:15;24.50;99.90
2465;DHT22;1244;54.326;10.074;2023-07-16T11:41:41;24.70;99.90
2465;DHT22;1244;54.326;10.074;2023-07-16T11:44:10;24.10;99.90
2465;DHT22;1244;54.326;10.074;2023-07-16T11:46:36;23.40;99.90
2465;DHT22;1244;54.326;10.074;2023-07-16T11:49:02;22.90;99.90
2465;DHT22;1244;54.326;10.074;2023-07-16T11:51:29;22.70;99.90
2465;DHT22;1244;54.326;10.074;2023-07-16T11:53:56;22.80;99.90
2465;DHT22;1244;54.326;10.074;2023-07-16T11:56:23;23.40;99.90
2465;DHT22;1244;54.326;10.074;2023-07-16T11:58:49;23.50;99.90
2465;DHT22;1244;54.326;10.074;2023-07-16T12:01:15;23.50;99.90
2465;DHT22;1244;54.326;10.074;2023-07-16T12:03:44;23.50;99.90
2465;DHT22;1244;54.326;10.074;2023-07-16T12:06:10;23.10;99.90
2465;DHT22;1244;54.326;10.074;2023-07-16T12:08:35;22.60;99.90
2465;DHT22;1244;54.326;10.074;2023-07-16T12:11:01;22.60;99.90
2465;DHT22;1244;54.326;10.074;2023-07-16T12:13:26;22.80;99.90
2465;DHT22;1244;54.326;10.074;2023-07-16T12:15:52;22.90;99.90
2465;DHT22;1244;54.326;10.074;2023-07-16T12:18:17;23.00;99.90
2465;DHT22;1244;54.326;10.074;2023-07-16T12:20:43;23.40;99.90
2465;DHT22;1244;54.326;10.074;2023-07-16T12:23:08;24.00;99.90
2465;DHT22;1244;54.326;10.074;2023-07-16T12:25:34;24.50;99.90
2465;DHT22;1244;54.326;10.074;2023-07-16T12:30:27;26.00;99.90
2465;DHT22;1244;54.326;10.074;2023-07-16T12:32:53;25.70;99.90
2465;DHT22;1244;54.326;10.074;2023-07-16T12:35:18;25.20;99.90
2465;DHT22;1244;54.326;10.074;2023-07-16T12:37:45;24.70;99.90
2465;DHT22;1244;54.326;10.074;2023-07-16T12:40:11;24.30;99.90
2465;DHT22;1244;54.326;10.074;2023-07-16T12:42:38;23.50;99.90
2465;DHT22;1244;54.326;10.074;2023-07-16T12:45:04;23.30;99.90
2465;DHT22;1244;54.326;10.074;2023-07-16T12:47:29;24.50;99.90
2465;DHT22;1244;54.326;10.074;2023-07-16T12:49:55;25.30;99.90
2465;DHT22;1244;54.326;10.074;2023-07-16T12:52:20;25.70;99.90
2465;DHT22;1244;54.326;10.074;2023-07-16T12:54:46;25.30;99.90
2465;DHT22;1244;54.326;10.074;2023-07-16T12:57:11;25.00;99.90
2465;DHT22;1244;54.326;10.074;2023-07-16T13:02:03;25.10;99.90
2465;DHT22;1244;54.326;10.074;2023-07-16T13:04:29;25.10;99.90
2465;DHT22;1244;54.326;10.074;2023-07-16T13:06:54;25.40;99.90
2465;DHT22;1244;54.326;10.074;2023-07-16T13:09:20;25.70;99.90
2465;DHT22;1244;54.326;10.074;2023-07-16T13:11:45;26.00;99.90
2465;DHT22;1244;54.326;10.074;2023-07-16T13:14:11;24.80;99.90
2465;DHT22;1244;54.326;10.074;2023-07-16T13:16:36;24.80;99.90
2465;DHT22;1244;54.326;10.074;2023-07-16T13:19:02;24.30;99.90
2465;DHT22;1244;54.326;10.074;2023-07-16T13:21:27;24.30;99.90
2465;DHT22;1244;54.326;10.074;2023-07-16T13:26:18;25.00;99.90
2465;DHT22;1244;54.326;10.074;2023-07-16T13:28:43;24.60;99.90
2465;DHT22;1244;54.326;10.074;2023-07-16T13:31:09;24.60;99.90
2465;DHT22;1244;54.326;10.074;2023-07-16T13:33:34;24.20;99.90
2465;DHT22;1244;54.326;10.074;2023-07-16T13:36:01;24.50;99.90
2465;DHT22;1244;54.326;10.074;2023-07-16T13:38:30;25.00;99.90
2465;DHT22;1244;54.326;10.074;2023-07-16T13:40:55;25.30;99.90
2465;DHT22;1244;54.326;10.074;2023-07-16T13:43:21;24.60;99.90
2465;DHT22;1244;54.326;10.074;2023-07-16T13:45:46;25.00;99.90
2465;DHT22;1244;54.326;10.074;2023-07-16T13:48:12;25.00;99.90
2465;DHT22;1244;54.326;10.074;2023-07-16T13:50:37;24.80;99.90
2465;DHT22;1244;54.326;10.074;2023-07-16T13:53:03;24.80;99.90
2465;DHT22;1244;54.326;10.074;2023-07-16T13:55:29;24.60;99.90
2465;DHT22;1244;54.326;10.074;2023-07-16T13:57:54;24.40;99.90
2465;DHT22;1244;54.326;10.074;2023-07-16T14:00:21;24.10;99.90
2465;DHT22;1244;54.326;10.074;2023-07-16T14:02:47;24.00;99.90
2465;DHT22;1244;54.326;10.074;2023-07-16T14:05:12;23.90;99.90
2465;DHT22;1244;54.326;10.074;2023-07-16T14:07:38;23.70;99.90
2465;DHT22;1244;54.326;10.074;2023-07-16T14:10:04;23.70;99.90
2465;DHT22;1244;54.326;10.074;2023-07-16T14:12:30;24.40;99.90
2465;DHT22;1244;54.326;10.074;2023-07-16T14:14:55;24.10;99.90
2465;DHT22;1244;54.326;10.074;2023-07-16T14:17:21;23.80;99.90
2465;DHT22;1244;54.326;10.074;2023-07-16T14:19:46;23.20;99.90
2465;DHT22;1244;54.326;10.074;2023-07-16T14:22:12;23.30;99.90
2465;DHT22;1244;54.326;10.074;2023-07-16T14:24:38;23.90;99.90
2465;DHT22;1244;54.326;10.074;2023-07-16T14:27:06;24.00;99.90
2465;DHT22;1244;54.326;10.074;2023-07-16T14:29:32;23.90;99.90
2465;DHT22;1244;54.326;10.074;2023-07-16T14:31:58;23.90;99.90
2465;DHT22;1244;54.326;10.074;2023-07-16T14:34:25;24.00;99.90
2465;DHT22;1244;54.326;10.074;2023-07-16T14:36:50;24.10;99.90
2465;DHT22;1244;54.326;10.074;2023-07-16T14:39:15;23.70;99.90
2465;DHT22;1244;54.326;10.074;2023-07-16T14:41:41;23.30;99.90
2465;DHT22;1244;54.326;10.074;2023-07-16T14:44:06;23.30;99.90
2465;DHT22;1244;54.326;10.074;2023-07-16T14:46:32;23.40;99.90
2465;DHT22;1244;54.326;10.074;2023-07-16T14:48:57;23.50;99.90
2465;DHT22;1244;54.326;10.074;2023-07-16T14:51:23;23.50;99.90
2465;DHT22;1244;54.326;10.074;2023-07-16T14:53:50;23.50;99.90
2465;DHT22;1244;54.326;10.074;2023-07-16T14:56:18;23.50;99.90
2465;DHT22;1244;54.326;10.074;2023-07-16T14:58:43;23.70;99.90
2465;DHT22;1244;54.326;10.074;2023-07-16T15:01:10;23.70;99.90
2465;DHT22;1244;54.326;10.074;2023-07-16T15:03:36;23.60;99.90
2465;DHT22;1244;54.326;10.074;2023-07-16T15:06:03;23.90;99.90
2465;DHT22;1244;54.326;10.074;2023-07-16T15:08:29;24.00;99.90
2465;DHT22;1244;54.326;10.074;2023-07-16T15:11:00;23.70;99.90
2465;DHT22;1244;54.326;10.074;2023-07-16T15:13:26;23.90;99.90
2465;DHT22;1244;54.326;10.074;2023-07-16T15:15:54;23.90;99.90
2465;DHT22;1244;54.326;10.074;2023-07-16T15:18:20;23.80;99.90
2465;DHT22;1244;54.326;10.074;2023-07-16T15:20:46;23.60;99.90
2465;DHT22;1244;54.326;10.074;2023-07-16T15:23:12;23.30;99.90
2465;DHT22;1244;54.326;10.074;2023-07-16T15:25:40;23.50;99.90
2465;DHT22;1244;54.326;10.074;2023-07-16T15:28:06;23.20;99.90
2465;DHT22;1244;54.326;10.074;2023-07-16T15:30:31;23.20;99.90
2465;DHT22;1244;54.326;10.074;2023-07-16T15:32:57;23.10;99.90
2465;DHT22;1244;54.326;10.074;2023-07-16T15:35:22;23.10;99.90
2465;DHT22;1244;54.326;10.074;2023-07-16T15:37:48;23.50;99.90
2465;DHT22;1244;54.326;10.074;2023-07-16T15:40:14;23.30;99.90
2465;DHT22;1244;54.326;10.074;2023-07-16T15:42:41;23.10;99.90
2465;DHT22;1244;54.326;10.074;2023-07-16T15:45:10;22.70;99.90
2465;DHT22;1244;54.326;10.074;2023-07-16T15:47:38;22.80;99.90
2465;DHT22;1244;54.326;10.074;2023-07-16T15:50:04;23.00;99.90
2465;DHT22;1244;54.326;10.074;2023-07-16T15:52:29;23.00;99.90